AAY72 KLAS-KRFD
Flight info
| Callsign | AAY72 |
|---|---|
| Flight time | N/A |
| Altitude | 37000 |
| Route | GIDGT3 TUKRR DVC J146 IOW VOGZZ FNLEE1 |
| Aircraft | A320/M-SDE3FGHIRWY/LB1 |
Departure
| Time | N/A |
|---|---|
| Airport | Harry Reid International Airport (KLAS) |
Arrival
| Time | 2026-04-20 18:37 |
|---|---|
| Airport | Chicago Rockford International Airport (KRFD) |
| Time | Latitude | Longitude | Altitude | Speed | Heading |
|---|---|---|---|---|---|
| 2026-04-20 18:03 | 41.35335 | -93.26426 | 37253 ft | 479 kts | 74° |
| 2026-04-20 18:03 | 41.36275 | -93.17637 | 37244 ft | 479 kts | 74° |
| 2026-04-20 18:04 | 41.37217 | -93.08855 | 37242 ft | 479 kts | 74° |
| 2026-04-20 18:04 | 41.38141 | -93.00073 | 37287 ft | 479 kts | 74° |
| 2026-04-20 18:05 | 41.39522 | -92.86903 | 37279 ft | 478 kts | 74° |
| 2026-04-20 18:05 | 41.40444 | -92.78111 | 37295 ft | 478 kts | 74° |
| 2026-04-20 18:06 | 41.41341 | -92.69395 | 37292 ft | 478 kts | 74° |
| 2026-04-20 18:06 | 41.42232 | -92.60604 | 37316 ft | 478 kts | 74° |
| 2026-04-20 18:07 | 41.43111 | -92.51825 | 37309 ft | 478 kts | 74° |
| 2026-04-20 18:07 | 41.43993 | -92.43062 | 37307 ft | 477 kts | 74° |
| 2026-04-20 18:08 | 41.44888 | -92.34282 | 37302 ft | 477 kts | 74° |
| 2026-04-20 18:08 | 41.45761 | -92.25512 | 37341 ft | 477 kts | 74° |
| 2026-04-20 18:09 | 41.46615 | -92.16740 | 37330 ft | 477 kts | 75° |
| 2026-04-20 18:09 | 41.47457 | -92.07963 | 37332 ft | 477 kts | 75° |
| 2026-04-20 18:10 | 41.48306 | -91.99200 | 37323 ft | 476 kts | 75° |
| 2026-04-20 18:10 | 41.49151 | -91.90431 | 37361 ft | 477 kts | 75° |
| 2026-04-20 18:11 | 41.49984 | -91.81661 | 37359 ft | 476 kts | 75° |
| 2026-04-20 18:11 | 41.50800 | -91.72951 | 37352 ft | 476 kts | 75° |
| 2026-04-20 18:12 | 41.51631 | -91.64187 | 37233 ft | 475 kts | 72° |
| 2026-04-20 18:12 | 41.52371 | -91.59956 | 36971 ft | 463 kts | 63° |
| 2026-04-20 18:12 | 41.53524 | -91.55984 | 36705 ft | 457 kts | 58° |
| 2026-04-20 18:13 | 41.54739 | -91.52070 | 36474 ft | 457 kts | 58° |
| 2026-04-20 18:13 | 41.55955 | -91.48146 | 36232 ft | 458 kts | 58° |
| 2026-04-20 18:13 | 41.57171 | -91.44203 | 35927 ft | 459 kts | 58° |
| 2026-04-20 18:13 | 41.58387 | -91.40243 | 35041 ft | 463 kts | 58° |
| 2026-04-20 18:14 | 41.59605 | -91.36258 | 34245 ft | 463 kts | 58° |
| 2026-04-20 18:14 | 41.60824 | -91.32257 | 33188 ft | 466 kts | 59° |
| 2026-04-20 18:14 | 41.62050 | -91.28234 | 32206 ft | 468 kts | 59° |
| 2026-04-20 18:14 | 41.63278 | -91.24201 | 31215 ft | 470 kts | 59° |
| 2026-04-20 18:15 | 41.64506 | -91.20160 | 30583 ft | 465 kts | 59° |
| 2026-04-20 18:15 | 41.65709 | -91.16177 | 29876 ft | 460 kts | 59° |
| 2026-04-20 18:15 | 41.66897 | -91.12236 | 29253 ft | 454 kts | 59° |
| 2026-04-20 18:15 | 41.68070 | -91.08340 | 28607 ft | 449 kts | 59° |
| 2026-04-20 18:16 | 41.69229 | -91.04492 | 27986 ft | 444 kts | 59° |
| 2026-04-20 18:16 | 41.70362 | -91.00731 | 27382 ft | 439 kts | 59° |
| 2026-04-20 18:16 | 41.71500 | -90.96959 | 26774 ft | 435 kts | 59° |
| 2026-04-20 18:16 | 41.72627 | -90.93223 | 26176 ft | 431 kts | 59° |
| 2026-04-20 18:17 | 41.73744 | -90.89514 | 25581 ft | 428 kts | 59° |
| 2026-04-20 18:17 | 41.74853 | -90.85828 | 24993 ft | 425 kts | 60° |
| 2026-04-20 18:17 | 41.75942 | -90.82168 | 24421 ft | 424 kts | 62° |
| 2026-04-20 18:17 | 41.76834 | -90.78379 | 23852 ft | 428 kts | 65° |
| 2026-04-20 18:18 | 41.77682 | -90.74567 | 23275 ft | 426 kts | 65° |
| 2026-04-20 18:18 | 41.78520 | -90.70780 | 22694 ft | 423 kts | 65° |
| 2026-04-20 18:18 | 41.79355 | -90.67016 | 22149 ft | 420 kts | 65° |
| 2026-04-20 18:18 | 41.80183 | -90.63280 | 21604 ft | 417 kts | 65° |
| 2026-04-20 18:19 | 41.81005 | -90.59566 | 21069 ft | 414 kts | 66° |
| 2026-04-20 18:19 | 41.81820 | -90.55882 | 20543 ft | 411 kts | 66° |
| 2026-04-20 18:19 | 41.82630 | -90.52211 | 20007 ft | 409 kts | 66° |
| 2026-04-20 18:19 | 41.83434 | -90.48558 | 19475 ft | 407 kts | 66° |
| 2026-04-20 18:20 | 41.83962 | -90.46154 | 19109 ft | 406 kts | 66° |
| 2026-04-20 18:20 | 41.84771 | -90.42496 | 18174 ft | 414 kts | 66° |
| 2026-04-20 18:20 | 41.85586 | -90.38808 | 17642 ft | 410 kts | 67° |
| 2026-04-20 18:20 | 41.86385 | -90.35158 | 17119 ft | 406 kts | 67° |
| 2026-04-20 18:21 | 41.87176 | -90.31539 | 16583 ft | 402 kts | 67° |
| 2026-04-20 18:21 | 41.87962 | -90.27955 | 16066 ft | 399 kts | 67° |
| 2026-04-20 18:21 | 41.88742 | -90.24397 | 15543 ft | 395 kts | 68° |
| 2026-04-20 18:21 | 41.89511 | -90.20862 | 15037 ft | 392 kts | 68° |
| 2026-04-20 18:22 | 41.90270 | -90.17361 | 14529 ft | 389 kts | 68° |
| 2026-04-20 18:22 | 41.91022 | -90.13886 | 13997 ft | 386 kts | 69° |
| 2026-04-20 18:22 | 41.91765 | -90.10442 | 13513 ft | 381 kts | 69° |
| 2026-04-20 18:22 | 41.92486 | -90.07086 | 13371 ft | 367 kts | 69° |
| 2026-04-20 18:23 | 41.93179 | -90.03857 | 13236 ft | 353 kts | 68° |
| 2026-04-20 18:23 | 41.93848 | -90.00746 | 13104 ft | 341 kts | 68° |
| 2026-04-20 18:23 | 41.94496 | -89.97738 | 13005 ft | 330 kts | 68° |
| 2026-04-20 18:23 | 41.95127 | -89.94814 | 12740 ft | 323 kts | 68° |
| 2026-04-20 18:24 | 41.95748 | -89.91940 | 12191 ft | 318 kts | 68° |
| 2026-04-20 18:24 | 41.96361 | -89.89100 | 11770 ft | 317 kts | 68° |
| 2026-04-20 18:24 | 41.96979 | -89.86257 | 11350 ft | 317 kts | 68° |
| 2026-04-20 18:24 | 41.97591 | -89.83424 | 11003 ft | 314 kts | 69° |
| 2026-04-20 18:25 | 41.98199 | -89.80599 | 10617 ft | 313 kts | 69° |
| 2026-04-20 18:25 | 41.98794 | -89.77821 | 10135 ft | 307 kts | 69° |
| 2026-04-20 18:25 | 41.99378 | -89.75081 | 9692 ft | 304 kts | 69° |
| 2026-04-20 18:25 | 41.99955 | -89.72356 | 9301 ft | 303 kts | 70° |
| 2026-04-20 18:26 | 42.00528 | -89.69637 | 8883 ft | 301 kts | 70° |
| 2026-04-20 18:26 | 42.01100 | -89.66945 | 8500 ft | 298 kts | 70° |
| 2026-04-20 18:26 | 42.01667 | -89.64272 | 8113 ft | 296 kts | 71° |
| 2026-04-20 18:26 | 42.02227 | -89.61623 | 7729 ft | 293 kts | 71° |
| 2026-04-20 18:27 | 42.02781 | -89.58992 | 7346 ft | 291 kts | 71° |
| 2026-04-20 18:27 | 42.03336 | -89.56396 | 7013 ft | 288 kts | 70° |
| 2026-04-20 18:27 | 42.03990 | -89.53877 | 6695 ft | 283 kts | 68° |
| 2026-04-20 18:27 | 42.04673 | -89.51419 | 6349 ft | 278 kts | 67° |
| 2026-04-20 18:28 | 42.05361 | -89.49016 | 6003 ft | 273 kts | 67° |
| 2026-04-20 18:28 | 42.06053 | -89.46662 | 5667 ft | 268 kts | 67° |
| 2026-04-20 18:28 | 42.07006 | -89.44556 | 5332 ft | 262 kts | 43° |
| 2026-04-20 18:28 | 42.08498 | -89.43303 | 4998 ft | 255 kts | 21° |
| 2026-04-20 18:29 | 42.10095 | -89.42314 | 4726 ft | 248 kts | 26° |
| 2026-04-20 18:29 | 42.11568 | -89.41283 | 4740 ft | 230 kts | 27° |
| 2026-04-20 18:29 | 42.13019 | -89.40257 | 4763 ft | 254 kts | 27° |
| 2026-04-20 18:29 | 42.14646 | -89.39108 | 4748 ft | 269 kts | 27° |
| 2026-04-20 18:30 | 42.16315 | -89.37929 | 4730 ft | 272 kts | 27° |
| 2026-04-20 18:30 | 42.18001 | -89.36738 | 4647 ft | 273 kts | 27° |
| 2026-04-20 18:30 | 42.19681 | -89.35555 | 4560 ft | 272 kts | 27° |
| 2026-04-20 18:30 | 42.21364 | -89.34378 | 4481 ft | 273 kts | 27° |
| 2026-04-20 18:31 | 42.23049 | -89.33208 | 4408 ft | 272 kts | 27° |
| 2026-04-20 18:31 | 42.24602 | -89.31768 | 4291 ft | 271 kts | 43° |
| 2026-04-20 18:31 | 42.25914 | -89.30016 | 4100 ft | 260 kts | 47° |
| 2026-04-20 18:31 | 42.27157 | -89.28293 | 3916 ft | 252 kts | 47° |
| 2026-04-20 18:32 | 42.28356 | -89.26630 | 3748 ft | 245 kts | 47° |
| 2026-04-20 18:32 | 42.29535 | -89.25006 | 3563 ft | 239 kts | 47° |
| 2026-04-20 18:32 | 42.30702 | -89.23406 | 3298 ft | 238 kts | 47° |
| 2026-04-20 18:32 | 42.31814 | -89.21766 | 3030 ft | 234 kts | 58° |
| 2026-04-20 18:33 | 42.32399 | -89.19796 | 2934 ft | 223 kts | 84° |
| 2026-04-20 18:33 | 42.32308 | -89.17753 | 2878 ft | 216 kts | 110° |
| 2026-04-20 18:33 | 42.31791 | -89.15857 | 2837 ft | 215 kts | 114° |
| 2026-04-20 18:33 | 42.31265 | -89.13973 | 2790 ft | 214 kts | 114° |
| 2026-04-20 18:34 | 42.30756 | -89.12145 | 2733 ft | 198 kts | 113° |
| 2026-04-20 18:34 | 42.30299 | -89.10494 | 2712 ft | 181 kts | 114° |
| 2026-04-20 18:34 | 42.29760 | -89.09052 | 2627 ft | 161 kts | 134° |
| 2026-04-20 18:34 | 42.28953 | -89.08217 | 2561 ft | 138 kts | 158° |
| 2026-04-20 18:35 | 42.28059 | -89.07923 | 2504 ft | 129 kts | 180° |
| 2026-04-20 18:35 | 42.27167 | -89.08027 | 2365 ft | 132 kts | 188° |
| 2026-04-20 18:35 | 42.26261 | -89.08140 | 2070 ft | 130 kts | 187° |
| 2026-04-20 18:35 | 42.25369 | -89.08243 | 1777 ft | 126 kts | 186° |
| 2026-04-20 18:36 | 42.24491 | -89.08355 | 1512 ft | 127 kts | 186° |
| 2026-04-20 18:36 | 42.23615 | -89.08471 | 1341 ft | 128 kts | 185° |
| 2026-04-20 18:36 | 42.22739 | -89.08585 | 1186 ft | 126 kts | 183° |
| 2026-04-20 18:36 | 42.21863 | -89.08695 | 1022 ft | 127 kts | 183° |
| 2026-04-20 18:37 | 42.20999 | -89.08805 | 849 ft | 125 kts | 182° |
| 2026-04-20 18:37 | 42.20152 | -89.08910 | 743 ft | 110 kts | 186° |
| 2026-04-20 18:37 | 42.19663 | -89.08974 | 741 ft | 32 kts | 186° |
| 2026-04-20 18:37 | 42.19471 | -89.08999 | 741 ft | 28 kts | 186° |
| 2026-04-20 18:38 | 42.19276 | -89.09023 | 740 ft | 29 kts | 185° |
| 2026-04-20 18:38 | 42.19073 | -89.09049 | 738 ft | 28 kts | 186° |
| 2026-04-20 18:38 | 42.18965 | -89.09121 | 734 ft | 17 kts | 259° |
| 2026-04-20 18:38 | 42.18987 | -89.09263 | 736 ft | 14 kts | 319° |
| 2026-04-20 18:39 | 42.19087 | -89.09270 | 737 ft | 17 kts | 5° |
| 2026-04-20 18:39 | 42.19201 | -89.09255 | 739 ft | 15 kts | 5° |
| 2026-04-20 18:39 | 42.19305 | -89.09242 | 740 ft | 17 kts | 6° |
| 2026-04-20 18:39 | 42.19451 | -89.09226 | 740 ft | 22 kts | 2° |
| 2026-04-20 18:40 | 42.19603 | -89.09218 | 738 ft | 21 kts | 2° |
| 2026-04-20 18:40 | 42.19736 | -89.09266 | 739 ft | 19 kts | 335° |
| 2026-04-20 18:40 | 42.19855 | -89.09340 | 737 ft | 18 kts | 335° |
| 2026-04-20 18:40 | 42.19962 | -89.09405 | 739 ft | 16 kts | 336° |
| 2026-04-20 18:41 | 42.20043 | -89.09467 | 740 ft | 11 kts | 298° |
| 2026-04-20 18:41 | 42.20043 | -89.09563 | 738 ft | 9 kts | 277° |
| 2026-04-20 18:41 | 42.20084 | -89.09590 | 739 ft | 6 kts | 16° |
| 2026-04-20 18:41 | 42.20104 | -89.09576 | 740 ft | 1 kts | 28° |
| 2026-04-20 18:42 | 42.20108 | -89.09573 | 740 ft | 0 kts | 29° |
| 2026-04-20 18:42 | 42.20111 | -89.09571 | 740 ft | 0 kts | 29° |